Time;durP1;ratioP1;P1;durP2;ratioP2;P2;SDS_P1;SDS_P2;PMS_P1;PMS_P2;Temp;Humidity;BMP_temperature;BMP_pressure;BME280_temperature;BME280_humidity;BME280_pressure;Samples;Min_cycle;Max_cycle;Signal;HPM_P1;HPM_P2
2021/09/21 00:01:59;;;;;;;9.20;7.00;;;;;;;9.94;67.96;99706.13;234946;1195;140445;-63
2021/09/21 00:07:03;;;;;;;9.80;7.40;;;;;;;9.95;68.07;99706.48;235959;1195;139314;-64
2021/09/21 00:12:06;;;;;;;12.00;8.10;;;;;;;10.00;68.00;99710.66;235835;1189;141026;-60
2021/09/21 00:17:09;;;;;;;11.20;7.60;;;;;;;9.98;68.22;99707.93;236084;1195;138709;-57
2021/09/21 00:22:12;;;;;;;10.60;7.50;;;;;;;9.95;68.13;99706.27;235859;1195;138207;-61
2021/09/21 00:27:15;;;;;;;11.50;7.90;;;;;;;9.95;68.08;99708.77;236426;1191;141599;-60
2021/09/21 00:32:24;;;;;;;14.60;7.60;;;;;;;9.90;68.31;99710.41;235843;1195;138915;-60
2021/09/21 00:37:27;;;;;;;9.10;7.00;;;;;;;9.91;68.04;99709.47;235987;1195;139128;-62
2021/09/21 00:42:31;;;;;;;9.90;7.40;;;;;;;9.94;68.25;99704.73;235890;1195;138583;-59
2021/09/21 00:47:40;;;;;;;11.70;7.50;;;;;;;9.94;67.97;99704.04;236191;1194;138465;-61
2021/09/21 00:52:43;;;;;;;11.70;7.80;;;;;;;9.88;67.86;99693.35;236096;1195;138868;-60
2021/09/21 00:57:47;;;;;;;9.40;7.30;;;;;;;9.82;67.87;99693.09;235959;1196;139550;-60
2021/09/21 01:02:50;;;;;;;11.20;7.90;;;;;;;9.74;67.79;99691.73;234977;1195;138646;-59
2021/09/21 01:07:57;;;;;;;12.60;7.50;;;;;;;9.69;67.96;99685.54;235743;1195;144154;-58
2021/09/21 01:13:06;;;;;;;11.80;8.10;;;;;;;9.67;68.33;99685.13;235923;1195;139019;-58
2021/09/21 01:18:09;;;;;;;9.60;7.10;;;;;;;9.67;68.36;99686.88;235926;1195;138895;-60
2021/09/21 01:23:12;;;;;;;12.00;8.30;;;;;;;9.66;68.21;99686.77;236221;1195;139366;-61
2021/09/21 01:28:15;;;;;;;12.00;8.70;;;;;;;9.64;68.31;99689.52;236328;1194;138783;-61
2021/09/21 01:33:20;;;;;;;9.00;7.90;;;;;;;9.57;68.34;99694.83;236271;1195;138510;-61
2021/09/21 01:38:23;;;;;;;13.20;8.30;;;;;;;9.50;68.25;99696.77;235140;1196;137738;-62
2021/09/21 01:43:26;;;;;;;12.60;7.60;;;;;;;9.43;68.25;99699.02;235761;1195;139570;-61
2021/09/21 01:48:29;;;;;;;14.40;8.00;;;;;;;9.43;68.35;99701.50;235953;1195;140172;-60
2021/09/21 01:58:48;;;;;;;10.70;7.30;;;;;;;9.37;68.40;99702.64;235546;1196;138576;-62
2021/09/21 02:03:57;;;;;;;10.50;7.20;;;;;;;9.30;68.27;99704.41;235923;1196;138624;-62
2021/09/21 02:09:01;;;;;;;11.30;8.60;;;;;;;9.20;68.09;99707.16;236154;1195;138651;-60
2021/09/21 02:14:08;;;;;;;13.80;8.10;;;;;;;9.13;68.44;99706.09;236288;1194;139295;-60
2021/09/21 02:19:11;;;;;;;14.80;8.00;;;;;;;9.07;68.36;99714.48;235962;1195;139433;-63
2021/09/21 02:24:20;;;;;;;12.40;9.10;;;;;;;9.04;68.50;99721.00;235860;1195;139570;-57
2021/09/21 02:29:23;;;;;;;12.70;9.60;;;;;;;9.01;68.55;99717.21;235861;1196;138382;-59
2021/09/21 02:34:26;;;;;;;16.70;10.60;;;;;;;9.01;68.65;99710.35;236146;1189;139049;-58
2021/09/21 02:39:29;;;;;;;14.20;10.90;;;;;;;8.97;68.51;99712.77;235514;1195;138550;-59
2021/09/21 02:44:33;;;;;;;17.40;11.10;;;;;;;8.91;68.87;99724.05;236052;1195;139140;-61
2021/09/21 02:49:37;;;;;;;15.50;11.00;;;;;;;8.86;68.94;99719.30;236141;1195;139446;-57
2021/09/21 02:54:40;;;;;;;17.80;11.30;;;;;;;8.85;69.11;99721.48;236254;1195;139955;-61
2021/09/21 02:59:43;;;;;;;17.00;11.50;;;;;;;8.91;69.30;99725.65;235654;1195;139693;-62
2021/09/21 03:04:56;;;;;;;14.00;10.80;;;;;;;9.00;69.35;99728.77;236011;1195;139110;-62
2021/09/21 03:11:11;;;;;;;19.50;12.30;;;;;;;9.05;69.44;99732.64;235910;1195;139481;-63
2021/09/21 03:20:54;;;;;;;16.90;10.60;;;;;;;9.01;69.29;99744.67;235952;1195;138433;-62
2021/09/21 03:25:58;;;;;;;16.70;11.10;;;;;;;8.98;69.07;99748.17;236016;1195;139744;-64
2021/09/21 03:31:03;;;;;;;17.70;11.40;;;;;;;8.99;69.28;99732.34;236329;1195;139913;-63
2021/09/21 03:36:06;;;;;;;15.40;11.20;;;;;;;8.99;69.37;99728.26;236232;1195;139505;-61
2021/09/21 03:41:09;;;;;;;23.60;11.20;;;;;;;8.96;69.38;99734.81;236008;1196;139633;-60
2021/09/21 03:46:12;;;;;;;18.40;11.70;;;;;;;8.91;69.18;99738.56;235621;1196;138843;-61
2021/09/21 03:51:15;;;;;;;23.50;12.60;;;;;;;8.89;69.39;99743.96;236138;1195;139170;-59
2021/09/21 03:56:18;;;;;;;18.30;11.50;;;;;;;8.83;69.22;99746.16;236225;1190;139298;-60
2021/09/21 04:01:21;;;;;;;17.00;11.30;;;;;;;8.79;69.07;99743.32;235716;1195;139654;-59
2021/09/21 04:06:25;;;;;;;19.20;12.70;;;;;;;8.79;69.26;99747.77;235886;1195;139128;-62
2021/09/21 04:11:28;;;;;;;20.70;12.40;;;;;;;8.79;69.35;99748.63;236214;1195;139478;-63
2021/09/21 04:16:35;;;;;;;20.20;12.50;;;;;;;8.82;69.31;99754.17;236042;1195;138504;-61
2021/09/21 04:21:39;;;;;;;19.30;12.90;;;;;;;8.82;69.35;99755.23;235911;1195;139027;-63
2021/09/21 04:26:42;;;;;;;19.40;12.80;;;;;;;8.79;69.19;99757.67;235612;1196;142769;-61
2021/09/21 04:31:48;;;;;;;372.00;292.40;;;;;;;8.72;69.32;99756.55;235895;1195;139308;-60
2021/09/21 04:36:51;;;;;;;22.40;15.40;;;;;;;8.76;69.59;99759.19;236182;1195;140706;-61
2021/09/21 04:41:54;;;;;;;23.20;14.00;;;;;;;8.83;69.50;99759.80;235965;1195;139366;-60
2021/09/21 04:46:57;;;;;;;205.90;140.00;;;;;;;8.85;69.51;99756.70;235961;1196;139000;-59
2021/09/21 04:52:00;;;;;;;45.00;29.60;;;;;;;8.89;69.70;99758.45;236148;1194;139439;-59
2021/09/21 04:57:04;;;;;;;23.00;14.60;;;;;;;8.92;69.46;99767.88;235966;1195;139442;-61
2021/09/21 05:02:07;;;;;;;21.60;13.70;;;;;;;8.89;69.35;99773.54;235750;1195;139115;-58
2021/09/21 05:07:11;;;;;;;21.80;13.60;;;;;;;8.83;69.42;99781.40;236123;1195;138464;-63
2021/09/21 05:12:14;;;;;;;22.00;13.40;;;;;;;8.82;69.47;99785.88;235865;1195;140045;-59
2021/09/21 05:17:17;;;;;;;24.90;14.00;;;;;;;8.83;69.51;99790.23;235904;1195;139491;-58
2021/09/21 05:22:20;;;;;;;20.00;14.50;;;;;;;8.86;69.73;99796.30;235945;1195;138476;-59
2021/09/21 05:27:28;;;;;;;21.50;14.70;;;;;;;8.91;69.95;99805.61;235603;1196;140901;-61
2021/09/21 05:32:31;;;;;;;218.90;149.50;;;;;;;8.99;69.88;99812.36;236001;1195;139062;-59
2021/09/21 05:37:34;;;;;;;28.10;18.20;;;;;;;9.12;70.20;99814.80;235937;1195;140577;-60
2021/09/21 05:42:38;;;;;;;26.60;15.40;;;;;;;9.17;70.05;99820.93;236020;1195;139626;-59
2021/09/21 05:47:42;;;;;;;21.50;14.10;;;;;;;9.27;70.34;99823.36;236060;1195;140070;-61
2021/09/21 05:52:46;;;;;;;28.50;17.00;;;;;;;9.36;69.97;99823.84;235929;1195;139808;-60
2021/09/21 05:57:49;;;;;;;29.00;17.60;;;;;;;9.43;70.05;99833.11;236312;1195;139384;-60
2021/09/21 06:02:54;;;;;;;23.20;17.00;;;;;;;9.50;70.04;99830.47;235836;1195;139211;-61
2021/09/21 06:07:58;;;;;;;28.90;16.40;;;;;;;9.56;70.11;99840.32;236435;1195;138762;-63
2021/09/21 06:13:02;;;;;;;22.90;15.50;;;;;;;9.62;70.08;99840.95;235972;1195;138568;-59
2021/09/21 06:18:05;;;;;;;25.90;16.20;;;;;;;9.65;69.82;99842.71;235856;1195;138621;-59
2021/09/21 06:23:09;;;;;;;22.10;16.10;;;;;;;9.69;69.71;99839.37;236337;1195;139531;-60
2021/09/21 06:28:12;;;;;;;24.00;16.00;;;;;;;9.80;70.28;99832.14;236008;1195;140819;-60
2021/09/21 06:33:15;;;;;;;24.20;16.00;;;;;;;9.95;70.31;99839.95;236298;1195;138595;-60
2021/09/21 06:38:18;;;;;;;26.00;16.00;;;;;;;9.99;70.16;99843.48;236148;1195;140040;-59
2021/09/21 06:43:21;;;;;;;24.20;16.90;;;;;;;10.01;69.68;99841.95;235787;1195;139110;-58
2021/09/21 06:48:24;;;;;;;25.60;15.70;;;;;;;10.03;69.81;99843.65;235938;1195;141930;-59
2021/09/21 06:53:27;;;;;;;25.20;16.00;;;;;;;10.10;70.11;99840.29;236345;1195;139488;-62
2021/09/21 06:58:33;;;;;;;27.00;16.00;;;;;;;10.21;69.88;99842.27;235894;1195;139271;-62
2021/09/21 07:03:36;;;;;;;24.60;17.20;;;;;;;10.31;69.96;99839.48;235515;1195;139481;-60
2021/09/21 07:08:39;;;;;;;24.90;16.10;;;;;;;10.44;70.17;99832.69;235965;1195;139229;-60
2021/09/21 07:13:42;;;;;;;23.80;16.10;;;;;;;10.52;69.78;99831.77;235988;1195;139052;-59
2021/09/21 07:18:46;;;;;;;27.20;15.70;;;;;;;10.57;69.74;99835.59;235821;1196;139379;-60
2021/09/21 07:23:49;;;;;;;26.80;14.60;;;;;;;10.58;69.49;99838.00;235963;1195;139713;-60
2021/09/21 07:28:52;;;;;;;20.80;13.50;;;;;;;10.69;69.35;99840.50;236142;1195;139254;-60
2021/09/21 07:33:55;;;;;;;24.70;15.50;;;;;;;10.80;69.59;99841.56;235911;1195;138799;-62
2021/09/21 07:38:58;;;;;;;25.70;16.20;;;;;;;10.97;69.31;99847.95;236135;1195;138834;-61
2021/09/21 07:44:03;;;;;;;28.60;15.10;;;;;;;11.13;69.20;99844.65;234658;1195;139261;-62
2021/09/21 07:49:06;;;;;;;21.70;13.70;;;;;;;11.28;69.17;99845.11;235720;1195;139045;-61
2021/09/21 07:54:09;;;;;;;18.30;12.80;;;;;;;11.39;68.75;99838.33;236075;1195;139287;-62
2021/09/21 07:59:12;;;;;;;19.60;12.70;;;;;;;11.48;68.54;99837.31;236052;1194;139668;-61
2021/09/21 08:04:15;;;;;;;16.90;11.40;;;;;;;11.65;68.38;99843.00;236212;1194;139543;-59
2021/09/21 08:09:18;;;;;;;21.20;12.50;;;;;;;11.77;68.35;99849.83;236113;1195;139350;-61
2021/09/21 08:14:21;;;;;;;18.20;11.80;;;;;;;11.90;68.29;99850.94;236229;1195;138982;-59
2021/09/21 08:19:25;;;;;;;17.10;11.30;;;;;;;12.02;67.78;99854.37;236093;1195;138835;-60
2021/09/21 08:24:28;;;;;;;19.70;11.60;;;;;;;12.09;67.29;99845.45;236022;1195;139346;-60
2021/09/21 08:29:31;;;;;;;19.30;10.70;;;;;;;12.16;67.40;99850.25;235837;1195;139415;-60
2021/09/21 08:34:34;;;;;;;14.10;9.80;;;;;;;12.25;67.40;99857.20;235981;1195;140269;-58
2021/09/21 08:39:38;;;;;;;18.70;10.30;;;;;;;12.43;67.33;99851.38;236002;1195;139711;-61
2021/09/21 08:44:41;;;;;;;16.40;10.10;;;;;;;12.62;67.32;99848.86;236171;1195;139060;-58
2021/09/21 08:49:44;;;;;;;16.20;9.10;;;;;;;12.76;66.92;99858.89;236087;1195;139283;-59
2021/09/21 08:54:49;;;;;;;14.70;9.70;;;;;;;12.82;66.58;99866.43;235288;1195;139239;-58
2021/09/21 08:59:55;;;;;;;17.10;9.20;;;;;;;12.85;66.41;99864.77;235506;1195;138687;-60
2021/09/21 09:05:07;;;;;;;13.30;9.50;;;;;;;12.91;66.24;99865.18;235909;1195;138803;-62
2021/09/21 09:10:13;;;;;;;12.50;8.40;;;;;;;12.97;66.28;99871.02;236415;1195;138848;-64
2021/09/21 09:15:19;;;;;;;13.70;9.50;;;;;;;13.06;66.02;99873.54;235715;1195;139481;-61
2021/09/21 09:20:31;;;;;;;12.20;8.50;;;;;;;13.12;66.00;99870.52;235961;1195;141419;-60
2021/09/21 09:26:06;;;;;;;14.90;7.90;;;;;;;13.21;65.54;99870.52;236308;1194;140071;-62
2021/09/21 09:31:09;;;;;;;12.60;7.60;;;;;;;13.27;65.49;99865.39;236083;1195;139621;-62
2021/09/21 09:36:19;;;;;;;97.50;63.50;;;;;;;13.36;65.29;99870.56;235941;1195;139437;-63
2021/09/21 09:41:22;;;;;;;9.90;6.30;;;;;;;13.45;64.97;99871.03;236348;1194;139290;-61
2021/09/21 09:46:25;;;;;;;11.50;6.50;;;;;;;13.54;64.75;99871.27;235586;1195;138935;-61
2021/09/21 09:51:28;;;;;;;11.50;5.50;;;;;;;13.58;64.47;99871.70;235417;1195;138220;-62
2021/09/21 09:56:32;;;;;;;12.90;5.00;;;;;;;13.64;64.19;99871.69;235761;1194;138936;-61
2021/09/21 10:01:35;;;;;;;8.30;4.20;;;;;;;13.70;64.02;99868.48;236035;1195;138987;-63
2021/09/21 10:06:39;;;;;;;6.30;3.70;;;;;;;13.79;63.85;99868.27;235374;1195;138462;-64
2021/09/21 10:11:50;;;;;;;4.30;2.70;;;;;;;13.92;63.40;99876.92;236382;1195;138441;-62
2021/09/21 10:17:00;;;;;;;4.00;2.70;;;;;;;14.07;62.92;99864.95;235875;1195;138691;-61
2021/09/21 10:22:04;;;;;;;3.70;2.30;;;;;;;14.13;62.36;99861.69;235703;1195;138591;-61
2021/09/21 10:27:18;;;;;;;4.00;2.30;;;;;;;14.14;62.20;99855.88;236169;1195;138766;-60
2021/09/21 10:32:23;;;;;;;3.90;2.30;;;;;;;14.30;61.86;99862.20;236083;1195;138703;-61
2021/09/21 10:37:31;;;;;;;128.00;85.30;;;;;;;14.50;61.67;99859.70;236011;1195;139160;-62
2021/09/21 10:42:35;;;;;;;8.20;5.10;;;;;;;14.54;61.08;99864.41;235986;1195;139342;-61
2021/09/21 10:47:39;;;;;;;4.10;2.70;;;;;;;14.64;60.72;99856.66;236242;1195;138792;-61
2021/09/21 10:52:43;;;;;;;5.00;2.20;;;;;;;14.71;60.54;99860.62;236168;1195;139002;-60
2021/09/21 10:57:47;;;;;;;4.80;2.40;;;;;;;14.75;60.27;99856.11;236220;1195;138666;-61
2021/09/21 11:02:52;;;;;;;4.90;2.40;;;;;;;14.83;60.07;99847.52;236080;1195;137936;-62
2021/09/21 11:07:59;;;;;;;275.60;178.50;;;;;;;14.81;59.49;99845.54;235997;1189;138650;-63
2021/09/21 11:13:17;;;;;;;12.00;6.50;;;;;;;14.76;59.42;99845.46;235427;1194;140298;-62
2021/09/21 11:18:20;;;;;;;3.90;2.90;;;;;;;14.72;59.20;99841.30;236050;1194;139182;-62
2021/09/21 11:23:26;;;;;;;6.20;2.90;;;;;;;14.77;59.16;99836.83;236129;1195;138783;-61
2021/09/21 11:28:31;;;;;;;4.10;2.40;;;;;;;14.91;59.25;99818.41;236014;1195;138513;-63
2021/09/21 11:33:37;;;;;;;3.40;2.20;;;;;;;15.13;59.20;99811.00;236066;1194;138614;-63
2021/09/21 11:38:44;;;;;;;3.70;2.20;;;;;;;15.26;58.66;99813.29;235750;1195;138740;-61
2021/09/21 11:43:48;;;;;;;4.10;2.10;;;;;;;15.25;58.31;99820.36;236167;1195;139529;-62
2021/09/21 11:49:04;;;;;;;3.10;2.00;;;;;;;15.29;57.78;99822.40;236227;1195;138779;-63
2021/09/21 11:54:07;;;;;;;3.60;2.40;;;;;;;15.40;57.75;99816.52;236241;1194;139049;-62
2021/09/21 11:59:17;;;;;;;6.30;2.60;;;;;;;15.61;57.78;99816.44;235630;1195;138442;-62
2021/09/21 12:04:20;;;;;;;4.00;2.70;;;;;;;15.70;57.44;99814.22;236216;1195;138875;-61
2021/09/21 12:09:23;;;;;;;4.40;2.80;;;;;;;15.83;57.38;99810.98;236185;1195;139105;-60
2021/09/21 12:14:26;;;;;;;3.60;2.00;;;;;;;15.83;56.94;99813.42;235841;1194;138963;-61
2021/09/21 12:19:29;;;;;;;5.60;2.60;;;;;;;15.76;56.65;99807.56;235853;1195;138643;-61
2021/09/21 12:24:32;;;;;;;394.10;286.90;;;;;;;15.70;56.89;99801.90;236093;1195;138668;-62
2021/09/21 12:29:35;;;;;;;32.80;22.10;;;;;;;15.74;56.98;99798.52;236193;1195;140116;-63
2021/09/21 12:34:41;;;;;;;5.30;3.90;;;;;;;15.70;56.71;99796.71;236202;1195;139880;-61
2021/09/21 12:39:57;;;;;;;9.70;3.40;;;;;;;15.59;56.43;99801.91;235946;1192;139473;-60
2021/09/21 12:45:01;;;;;;;5.00;2.60;;;;;;;15.49;56.57;99811.91;236176;1195;138886;-61
2021/09/21 12:50:15;;;;;;;6.30;2.70;;;;;;;15.36;56.54;99811.18;236024;1195;138903;-59
2021/09/21 12:55:32;;;;;;;4.20;2.80;;;;;;;15.30;56.58;99804.46;235334;1195;138631;-61
2021/09/21 13:00:38;;;;;;;7.00;3.10;;;;;;;15.32;56.44;99804.69;235857;1194;139132;-61
2021/09/21 13:05:42;;;;;;;7.90;3.30;;;;;;;15.32;56.59;99801.07;236048;1195;139144;-61
2021/09/21 13:10:46;;;;;;;6.30;3.20;;;;;;;15.52;56.81;99803.97;236015;1195;139163;-62
2021/09/21 13:15:49;;;;;;;4.80;2.60;;;;;;;15.81;56.55;99798.08;235922;1194;139495;-60
2021/09/21 13:20:52;;;;;;;4.90;2.40;;;;;;;16.25;56.39;99797.73;236152;1195;138843;-61
2021/09/21 13:25:56;;;;;;;5.50;2.20;;;;;;;16.67;56.01;99796.37;234606;1196;138700;-62
2021/09/21 13:31:00;;;;;;;3.20;2.30;;;;;;;16.95;55.16;99789.61;236177;1195;139185;-62
2021/09/21 13:36:03;;;;;;;107.10;73.20;;;;;;;16.91;54.59;99788.66;236137;1195;138959;-62
2021/09/21 13:41:06;;;;;;;11.90;5.50;;;;;;;16.71;53.98;99785.33;236119;1195;139033;-62
2021/09/21 13:46:09;;;;;;;5.70;3.10;;;;;;;16.46;53.87;99781.67;236032;1195;139248;-62
2021/09/21 13:51:12;;;;;;;5.10;2.80;;;;;;;16.20;53.81;99777.83;236126;1195;138443;-61
2021/09/21 13:56:16;;;;;;;7.60;3.20;;;;;;;16.09;54.05;99776.88;235992;1195;138967;-62
2021/09/21 14:01:19;;;;;;;8.10;3.00;;;;;;;16.02;54.42;99781.65;236064;1195;139088;-62
2021/09/21 14:06:23;;;;;;;9.00;3.20;;;;;;;15.93;54.22;99774.98;236051;1195;138683;-61
2021/09/21 14:11:25;;;;;;;5.00;2.80;;;;;;;15.85;54.30;99782.89;236201;1195;139054;-60
2021/09/21 14:16:28;;;;;;;4.30;2.90;;;;;;;15.77;54.41;99785.75;236274;1195;138885;-61
2021/09/21 14:21:32;;;;;;;7.30;3.00;;;;;;;15.70;54.36;99782.34;236224;1195;138700;-62
2021/09/21 14:26:35;;;;;;;9.80;3.00;;;;;;;15.59;54.55;99777.39;236027;1194;138644;-62
2021/09/21 14:31:38;;;;;;;5.60;3.30;;;;;;;15.50;54.59;99781.26;236093;1195;139267;-62
2021/09/21 14:36:43;;;;;;;129.90;87.70;;;;;;;15.42;54.68;99783.80;235833;1195;138362;-63
2021/09/21 14:41:47;;;;;;;6.50;4.60;;;;;;;15.36;55.21;99782.79;236117;1195;139766;-62
2021/09/21 14:46:50;;;;;;;8.00;3.70;;;;;;;15.26;55.16;99786.65;235954;1195;139258;-61
2021/09/21 14:51:53;;;;;;;9.90;5.30;;;;;;;15.11;55.40;99787.86;236095;1195;138624;-63
2021/09/21 14:56:56;;;;;;;8.40;4.80;;;;;;;15.00;55.85;99799.38;236266;1195;138866;-61
2021/09/21 15:01:59;;;;;;;7.40;4.40;;;;;;;14.78;56.39;99811.59;236206;1195;138608;-62
2021/09/21 15:07:02;;;;;;;10.40;5.50;;;;;;;14.50;57.19;99819.66;236260;1194;138600;-62
2021/09/21 15:12:05;;;;;;;11.90;6.40;;;;;;;14.20;57.83;99821.95;236151;1195;140361;-62
2021/09/21 15:17:08;;;;;;;8.20;6.10;;;;;;;13.93;58.62;99817.96;236113;1195;138905;-61
2021/09/21 15:22:13;;;;;;;90.70;62.10;;;;;;;13.78;59.21;99817.52;236081;1195;138833;-60
2021/09/21 15:27:16;;;;;;;8.20;5.70;;;;;;;13.71;59.83;99815.95;236201;1195;139445;-61
2021/09/21 15:32:20;;;;;;;7.70;4.60;;;;;;;13.64;60.25;99816.04;236129;1195;138792;-63
2021/09/21 15:37:23;;;;;;;8.00;4.80;;;;;;;13.57;60.49;99815.79;235973;1195;138953;-60
2021/09/21 15:42:28;;;;;;;285.30;166.10;;;;;;;13.50;60.98;99817.84;235962;1195;138693;-60
2021/09/21 15:47:32;;;;;;;12.50;6.80;;;;;;;13.50;61.33;99809.07;236358;1195;139571;-60
2021/09/21 15:52:35;;;;;;;8.40;4.80;;;;;;;13.45;61.28;99815.59;236149;1195;138573;-61
2021/09/21 15:57:39;;;;;;;7.30;5.40;;;;;;;13.38;61.49;99820.19;236140;1195;138400;-60
2021/09/21 16:02:43;;;;;;;15.40;10.00;;;;;;;13.30;61.77;99819.07;235887;1195;138578;-60
2021/09/21 16:07:46;;;;;;;8.20;5.10;;;;;;;13.22;61.99;99820.75;235777;1195;139103;-61
2021/09/21 16:12:50;;;;;;;49.00;34.20;;;;;;;13.16;62.34;99819.84;235239;1195;138778;-62
2021/09/21 16:17:55;;;;;;;9.00;4.60;;;;;;;13.24;62.55;99821.89;236238;1195;140054;-61
2021/09/21 16:22:58;;;;;;;7.30;4.80;;;;;;;13.29;62.64;99823.74;235987;1195;140077;-63
2021/09/21 16:28:03;;;;;;;7.80;5.10;;;;;;;13.32;62.68;99836.27;235793;1195;143315;-62
2021/09/21 16:33:09;;;;;;;9.60;5.70;;;;;;;13.30;62.87;99840.05;235858;1194;139591;-61
2021/09/21 16:38:15;;;;;;;7.80;5.20;;;;;;;13.26;62.78;99845.50;236037;1195;139761;-61
2021/09/21 16:43:21;;;;;;;7.30;5.50;;;;;;;13.20;62.98;99842.59;236066;1195;140443;-61
2021/09/21 16:48:24;;;;;;;9.00;6.10;;;;;;;13.16;63.04;99843.91;235730;1195;138986;-61
2021/09/21 16:53:29;;;;;;;9.70;6.30;;;;;;;13.09;63.07;99840.21;236006;1195;138329;-64
2021/09/21 16:58:33;;;;;;;12.10;6.80;;;;;;;13.05;63.42;99831.38;236173;1195;138813;-61
2021/09/21 17:03:39;;;;;;;9.10;7.20;;;;;;;13.05;63.29;99826.24;236222;1195;140099;-62
2021/09/21 17:08:43;;;;;;;355.30;271.70;;;;;;;13.06;63.93;99833.47;236070;1195;139422;-64
2021/09/21 17:13:46;;;;;;;14.00;10.10;;;;;;;13.28;64.39;99835.20;236129;1195;140287;-63
2021/09/21 17:18:54;;;;;;;12.20;8.40;;;;;;;13.33;64.30;99839.36;236003;1195;139715;-63
2021/09/21 17:23:58;;;;;;;14.40;8.10;;;;;;;13.29;63.98;99845.52;236372;1195;138539;-64
2021/09/21 17:29:02;;;;;;;13.20;8.80;;;;;;;13.22;63.95;99847.83;236090;1196;138936;-61
2021/09/21 17:34:05;;;;;;;15.10;8.50;;;;;;;13.15;63.89;99844.65;236196;1195;139026;-61
2021/09/21 17:39:10;;;;;;;12.40;8.60;;;;;;;13.11;64.01;99845.67;236123;1195;139164;-63
2021/09/21 17:44:14;;;;;;;12.90;8.70;;;;;;;13.07;64.25;99840.89;235876;1195;138878;-63
2021/09/21 17:49:17;;;;;;;18.40;9.10;;;;;;;13.04;64.08;99831.45;235863;1195;140127;-63
2021/09/21 17:54:20;;;;;;;14.50;9.00;;;;;;;13.09;64.24;99835.98;236273;1195;139022;-62
2021/09/21 17:59:23;;;;;;;17.70;9.20;;;;;;;13.09;64.42;99837.92;236194;1195;138762;-64
2021/09/21 18:04:26;;;;;;;15.90;9.10;;;;;;;13.08;64.03;99832.43;236050;1195;138869;-63
2021/09/21 18:09:31;;;;;;;14.30;9.40;;;;;;;13.04;64.24;99835.70;235967;1195;139485;-64
2021/09/21 18:14:34;;;;;;;15.30;9.40;;;;;;;12.99;64.08;99831.20;235844;1195;138889;-63
2021/09/21 18:19:55;;;;;;;172.00;101.10;;;;;;;12.95;64.29;99844.09;236177;1195;139251;-64
2021/09/21 18:24:58;;;;;;;15.40;10.10;;;;;;;12.94;64.80;99834.34;235513;1195;139348;-61
2021/09/21 18:30:05;;;;;;;16.10;9.00;;;;;;;13.00;64.74;99833.45;236230;1195;140176;-63
2021/09/21 18:35:10;;;;;;;13.40;8.80;;;;;;;12.99;64.59;99826.54;236177;1195;139333;-66
2021/09/21 18:40:15;;;;;;;18.70;10.20;;;;;;;13.00;64.75;99833.29;235944;1196;139085;-62
2021/09/21 18:45:20;;;;;;;14.70;9.80;;;;;;;13.02;64.89;99835.79;236008;1195;139309;-64
2021/09/21 18:50:23;;;;;;;17.70;11.50;;;;;;;13.00;64.96;99834.49;235844;1195;138443;-62
2021/09/21 18:55:27;;;;;;;20.00;11.50;;;;;;;12.98;64.91;99828.95;236092;1195;138844;-60
2021/09/21 19:00:30;;;;;;;17.70;11.60;;;;;;;12.92;64.81;99824.30;235823;1195;139648;-63
2021/09/21 19:05:36;;;;;;;19.60;11.70;;;;;;;12.84;64.99;99823.56;235920;1195;139293;-62
2021/09/21 19:10:40;;;;;;;22.10;11.70;;;;;;;12.81;64.93;99820.52;235805;1195;139781;-62
2021/09/21 19:15:45;;;;;;;22.90;12.50;;;;;;;12.82;65.12;99814.05;236094;1195;139954;-63
2021/09/21 19:20:48;;;;;;;19.40;12.60;;;;;;;12.82;65.17;99809.42;235957;1195;139861;-62
2021/09/21 19:25:51;;;;;;;24.80;17.10;;;;;;;12.84;65.21;99808.79;236040;1194;139494;-64
2021/09/21 19:30:54;;;;;;;28.10;16.30;;;;;;;12.88;65.33;99804.27;236178;1195;139368;-62
2021/09/21 19:35:57;;;;;;;26.10;15.00;;;;;;;12.86;65.38;99794.00;236050;1187;139407;-64
2021/09/21 19:41:01;;;;;;;30.50;16.40;;;;;;;12.82;65.42;99793.05;236089;1195;139856;-65
2021/09/21 19:46:04;;;;;;;27.50;16.00;;;;;;;12.78;65.66;99796.79;236051;1196;139179;-62
2021/09/21 19:51:09;;;;;;;32.90;17.10;;;;;;;12.78;65.56;99797.02;236019;1195;139863;-63
2021/09/21 19:56:12;;;;;;;28.20;16.30;;;;;;;12.82;65.72;99793.54;236096;1195;140105;-64
2021/09/21 20:01:17;;;;;;;31.10;17.00;;;;;;;12.87;65.68;99796.64;235912;1195;138956;-63
2021/09/21 20:06:20;;;;;;;26.40;15.70;;;;;;;12.89;65.93;99794.58;236027;1195;138972;-64
2021/09/21 20:11:23;;;;;;;26.40;17.00;;;;;;;12.84;65.95;99791.67;235981;1195;138848;-61
2021/09/21 20:16:26;;;;;;;27.80;16.40;;;;;;;12.77;65.88;99787.05;235539;1195;140926;-64
2021/09/21 20:21:29;;;;;;;25.80;15.40;;;;;;;12.73;66.10;99790.52;235912;1195;139854;-64
2021/09/21 20:26:33;;;;;;;21.30;14.70;;;;;;;12.73;66.35;99796.05;235322;1195;139642;-60
2021/09/21 20:31:38;;;;;;;24.20;14.80;;;;;;;12.74;66.15;99795.45;235677;1195;141123;-61
2021/09/21 20:36:48;;;;;;;24.10;14.90;;;;;;;12.72;66.39;99791.30;235733;1195;139387;-59
2021/09/21 20:41:51;;;;;;;23.90;17.00;;;;;;;12.69;66.08;99792.40;236146;1195;139146;-62
2021/09/21 20:46:54;;;;;;;27.80;17.60;;;;;;;12.60;66.49;99791.13;236046;1195;139265;-62
2021/09/21 20:52:00;;;;;;;26.00;17.70;;;;;;;12.52;66.40;99789.79;235417;1195;139040;-64
2021/09/21 20:57:03;;;;;;;27.00;17.60;;;;;;;12.46;67.01;99787.11;235819;1195;138972;-62
2021/09/21 21:02:07;;;;;;;24.30;15.80;;;;;;;12.46;67.13;99783.58;235984;1195;139638;-61
2021/09/21 21:07:11;;;;;;;23.40;17.50;;;;;;;12.48;67.20;99782.73;236179;1195;139652;-62
2021/09/21 21:12:14;;;;;;;51.70;33.40;;;;;;;12.50;67.47;99789.36;235930;1195;139377;-61
2021/09/21 21:17:17;;;;;;;28.30;16.90;;;;;;;12.54;67.51;99785.43;236167;1195;139001;-63
2021/09/21 21:22:20;;;;;;;22.10;13.50;;;;;;;12.50;67.16;99793.97;236140;1195;139590;-61
2021/09/21 21:27:24;;;;;;;16.10;10.80;;;;;;;12.44;67.04;99804.84;235913;1195;139342;-64
2021/09/21 21:32:27;;;;;;;8.60;5.90;;;;;;;12.34;66.66;99799.90;236104;1195;140064;-64
2021/09/21 21:37:31;;;;;;;8.70;4.10;;;;;;;12.24;66.16;99811.52;235937;1195;139672;-66
2021/09/21 21:42:34;;;;;;;6.40;3.80;;;;;;;12.14;66.53;99811.38;236198;1194;139711;-65
2021/09/21 21:47:37;;;;;;;6.80;4.80;;;;;;;12.05;66.56;99803.70;236166;1195;138724;-63
2021/09/21 21:52:40;;;;;;;6.10;4.00;;;;;;;11.96;66.54;99796.17;236111;1195;138756;-62
2021/09/21 21:57:44;;;;;;;6.70;4.80;;;;;;;11.81;66.69;99794.46;236161;1195;138541;-61
2021/09/21 22:02:49;;;;;;;5.70;4.70;;;;;;;11.71;66.58;99784.20;235620;1195;139203;-61
2021/09/21 22:07:54;;;;;;;98.80;63.90;;;;;;;11.59;66.67;99775.23;235962;1195;139627;-62
2021/09/21 22:12:58;;;;;;;6.70;3.60;;;;;;;11.57;67.13;99771.95;235812;1195;139812;-64
2021/09/21 22:18:02;;;;;;;5.00;3.90;;;;;;;11.57;66.98;99772.30;236012;1195;139817;-64
2021/09/21 22:23:06;;;;;;;5.20;3.60;;;;;;;11.53;66.99;99773.27;236299;1195;150542;-64
2021/09/21 22:28:09;;;;;;;5.90;4.40;;;;;;;11.46;66.99;99780.74;235780;1194;140343;-64
2021/09/21 22:33:13;;;;;;;6.80;4.60;;;;;;;11.41;67.44;99781.36;235776;1195;138605;-63
2021/09/21 22:38:16;;;;;;;7.80;4.30;;;;;;;11.42;67.77;99772.80;235726;1195;142182;-64
2021/09/21 22:43:20;;;;;;;8.30;5.10;;;;;;;11.41;67.63;99760.06;235964;1195;138621;-62
2021/09/21 22:48:23;;;;;;;5.70;4.30;;;;;;;11.35;67.34;99758.23;236206;1195;139343;-61
2021/09/21 22:53:26;;;;;;;6.50;4.00;;;;;;;11.41;67.89;99751.55;236523;1194;139587;-60
2021/09/21 22:58:29;;;;;;;7.80;5.30;;;;;;;11.40;67.66;99751.79;235606;1195;138422;-61
2021/09/21 23:03:32;;;;;;;8.30;5.40;;;;;;;11.37;67.75;99743.73;236413;1194;138319;-60
2021/09/21 23:08:35;;;;;;;11.20;7.40;;;;;;;11.37;68.23;99741.27;235491;1195;138310;-61
2021/09/21 23:13:39;;;;;;;12.60;8.90;;;;;;;11.35;68.28;99731.77;235532;1195;138388;-62